Latest Weather Observations for Ceduna

IDS60801

Issued at 9:35 am CST Tuesday 29 July 2014 (issued every 30 minutes, with the page automatically refreshed every 10 minutes)

About weather observations | Map of weather stations | Latest weather observations for SA | Other Formats
Station Details ID: 018012 Name: CEDUNA AMO Lat: -32.13 Lon: 133.70 Height: 15.3 m
Data from the previous 72 hours. | See also: Recent months at Ceduna
Date/Time
CST
Temp
°C
App
Temp
°C
Dew
Point
Rel
Hum
%
Delta-T
°C
Wind Press
QNH
hPa
Press
MSL
hPa
Rain
since 9 am
mm
Dir
 
Spd
km/h
Gust
km/h
Spd
kts
Gust
kts
29/09:30am 13.5 9.4 8.0 69 2.7 NNW 19 28 10 15 1021.7 1021.7 0.0
29/09:00am 12.4 8.3 7.7 73 2.3 NNW 19 24 10 13 1021.6 1021.6 0.0
29/08:30am 9.9 6.3 6.9 81 1.4 NNW 15 20 8 11 1021.4 1021.4 0.0
29/08:00am 8.0 4.7 6.2 88 0.8 NNW 13 17 7 9 1021.1 - 0.0
29/07:30am 7.2 3.8 6.1 93 0.5 NNW 13 17 7 9 1020.9 1020.9 0.0
29/07:00am 7.3 4.3 6.2 93 0.5 NNW 11 13 6 7 1020.7 - 0.0
29/06:30am 7.8 4.9 6.3 90 0.7 NNW 11 15 6 8 1020.4 1020.4 0.0
29/06:00am 7.6 4.7 6.3 91 0.6 NNW 11 13 6 7 1020.2 1020.2 0.0
29/05:30am 7.5 4.5 6.2 91 0.6 NNW 11 15 6 8 1019.9 1019.9 0.0
29/05:00am 7.3 4.3 6.2 93 0.5 NNW 11 13 6 7 1019.7 - 0.0
29/04:30am 7.7 4.4 6.6 93 0.5 N 13 17 7 9 1019.4 1019.4 0.0
29/04:00am 8.1 5.0 7.2 94 0.4 NNW 13 17 7 9 1019.7 - 0.0
29/03:30am 8.6 5.9 7.3 91 0.6 NNW 11 13 6 7 1020.0 1020.0 0.0
29/03:00am 8.6 5.9 7.3 91 0.6 NNW 11 13 6 7 1020.0 1020.0 0.0
29/02:30am 8.5 5.8 7.2 91 0.6 NNW 11 13 6 7 1020.0 1020.0 0.0
29/02:00am 10.2 7.8 8.6 90 0.8 NW 11 13 6 7 1020.0 - 0.0
29/01:30am 10.6 7.9 8.8 89 0.9 NW 13 15 7 8 1020.2 1020.2 0.0
29/01:00am 9.9 7.4 8.2 89 0.8 NW 11 13 6 7 1020.1 - 0.0
29/12:30am 10.3 7.9 8.7 90 0.8 NW 11 15 6 8 1020.2 1020.2 0.0
29/12:00am 10.5 8.2 8.9 90 0.8 NW 11 15 6 8 1020.3 1020.3 0.0
 
Date/Time
CST
Temp
°C
App
Temp
°C
Dew
Point
Rel
Hum
%
Delta-T
°C
Wind Press
QNH
hPa
Press
MSL
hPa
Rain
since 9 am
mm
Dir
 
Spd
km/h
Gust
km/h
Spd
kts
Gust
kts
28/11:30pm 11.5 9.0 9.7 89 0.9 NW 13 15 7 8 1020.5 1020.5 0.0
28/11:00pm 11.6 9.5 9.8 89 0.9 NW 11 15 6 8 1020.4 - 0.0
28/10:30pm 10.9 9.1 9.5 91 0.7 NW 9 11 5 6 1020.3 1020.3 0.0
28/10:00pm 10.8 9.0 9.4 91 0.7 NNW 9 15 5 8 1020.3 - 0.0
28/09:30pm 11.8 9.8 10.0 89 0.9 WNW 11 13 6 7 1020.2 1020.2 0.0
28/09:00pm 11.2 9.4 9.4 89 0.9 NW 9 11 5 6 1019.9 1019.9 0.0
28/08:30pm 11.6 9.8 9.4 86 1.1 NW 9 11 5 6 1019.7 1019.7 0.0
28/08:00pm 11.8 10.1 9.8 87 1.0 NNW 9 13 5 7 1019.6 - 0.0
28/07:30pm 12.6 11.4 10.3 86 1.2 NW 7 9 4 5 1019.4 1019.4 0.0
28/07:00pm 11.7 10.6 10.1 90 0.8 NNW 6 7 3 4 1019.1 - 0.0
28/06:30pm 12.6 11.6 10.9 89 0.9 N 7 7 4 4 1018.6 1018.6 0.0
28/06:00pm 14.2 14.5 11.0 81 1.7 SW 0 0 0 0 1018.6 1018.6 0.0
28/05:30pm 14.8 15.1 10.8 77 2.1 CALM 0 0 0 0 1018.2 1018.2 0.0
28/05:00pm 15.1 15.3 12.0 82 1.7 SSW 2 6 1 3 1018.2 - 0.0
28/04:30pm 15.2 14.5 12.1 82 1.7 SSW 7 9 4 5 1018.1 1018.1 0.0
28/04:00pm 15.3 14.2 12.0 81 1.8 SSW 9 13 5 7 1018.1 - 0.0
28/03:30pm 16.5 16.2 11.3 71 2.8 SSW 4 9 2 5 1018.2 1018.2 0.0
28/03:00pm 16.4 15.6 11.0 70 2.9 SW 6 7 3 4 1018.2 1018.2 0.0
28/02:30pm 16.8 15.6 10.2 65 3.5 SW 7 9 4 5 1018.4 1018.4 0.0
28/02:00pm 17.4 15.3 6.7 49 5.3 SW 7 9 4 5 1018.6 - 0.0
28/01:30pm 17.7 15.6 8.3 54 4.8 W 9 15 5 8 1019.1 1019.1 0.0
28/01:00pm 18.6 16.1 8.0 50 5.4 W 11 17 6 9 1019.4 - 0.0
28/12:30pm 18.2 16.1 9.6 57 4.5 WNW 11 15 6 8 1019.7 1019.7 0.0
28/12:00pm 16.7 15.4 12.5 76 2.3 NW 11 13 6 7 1020.2 1020.2 0.0
28/11:30am 16.6 16.0 13.4 81 1.8 NNW 9 13 5 7 1020.4 1020.4 0.0
28/11:20am 16.3 15.9 14.0 86 1.3 NNW 9 13 5 7 1020.5 - 0.0
28/11:00am 15.0 14.5 13.7 92 0.7 NW 9 13 5 7 1020.6 - 0.0
28/10:57am 15.1 14.7 14.2 94 0.5 NW 9 13 5 7 1020.7 - 0.0
28/10:51am 14.5 14.0 13.8 96 0.4 NW 9 13 5 7 1020.8 - 0.0
28/10:46am 14.1 13.5 13.6 97 0.3 NW 9 13 5 7 1020.7 - 0.0
28/10:41am 14.0 13.4 13.5 97 0.3 NNW 9 13 5 7 1020.7 - 0.0
28/10:30am 13.4 12.3 13.0 97 0.2 NW 11 15 6 8 1020.7 1020.7 0.0
28/10:00am 12.7 11.3 12.1 96 0.3 NW 11 15 6 8 1020.9 - 0.0
28/09:39am 12.7 10.8 11.8 94 0.5 WNW 13 17 7 9 1020.8 - 0.0
28/09:35am 12.7 10.8 11.8 94 0.5 WNW 13 17 7 9 1020.7 - 0.0
28/09:30am 12.8 11.3 11.9 94 0.5 WNW 11 17 6 9 1020.7 1020.7 0.0
28/09:19am 12.8 11.6 11.7 93 0.6 NW 9 13 5 7 1020.6 - 0.0
28/09:00am 12.4 11.5 11.4 94 0.5 NW 7 11 4 6 1020.7 1020.7 0.0
28/08:56am 12.0 10.9 10.8 92 0.6 NNW 7 9 4 5 1020.6 - 0.0
28/08:30am 10.4 10.1 10.0 97 0.2 NNW 2 7 1 4 1020.5 1020.5 0.0
28/08:21am 9.7 8.5 9.5 99 0.1 NW 6 9 3 5 1020.6 - 0.0
28/08:09am 8.3 6.5 7.9 97 0.2 NNW 7 9 4 5 1020.7 - 0.0
28/08:06am 8.2 6.4 7.8 97 0.2 NNW 7 9 4 5 1020.6 - 0.0
28/08:00am 7.9 6.0 7.5 97 0.2 N 7 9 4 5 1020.5 - 0.0
28/07:43am 7.4 5.0 7.0 97 0.2 N 9 11 5 6 1020.3 - 0.0
28/07:30am 7.8 5.4 7.2 96 0.3 N 9 13 5 7 1020.1 1020.1 0.0
28/07:28am 7.5 5.1 7.1 97 0.2 N 9 11 5 6 1020.1 - 0.0
28/07:17am 7.5 4.8 7.3 99 0.1 N 11 11 6 6 1020.2 - 0.0
28/07:00am 7.8 5.4 7.2 96 0.3 N 9 11 5 6 1020.1 - 0.0
28/06:30am 8.0 5.7 7.4 96 0.3 N 9 11 5 6 1020.1 1020.1 0.0
28/06:00am 6.9 5.0 6.5 97 0.2 N 6 7 3 4 1020.0 1020.0 0.0
28/05:30am 7.4 4.9 6.7 95 0.3 N 9 11 5 6 1019.8 1019.8 0.0
28/05:00am 5.8 3.3 4.9 94 0.4 N 7 7 4 4 1019.7 - 0.0
28/04:30am 6.3 3.6 5.6 95 0.3 N 9 9 5 5 1019.7 1019.7 0.0
28/04:00am 7.4 5.2 6.3 93 0.5 N 7 11 4 6 1019.6 - 0.0
28/03:30am 7.3 4.6 5.7 89 0.7 N 9 11 5 6 1019.6 1019.6 0.0
28/03:00am 7.1 4.7 5.3 88 0.8 NNW 7 9 4 5 1019.6 1019.6 0.0
28/02:30am 6.8 4.0 5.2 89 0.7 NNW 9 11 5 6 1019.7 1019.7 0.0
28/02:00am 6.2 3.7 4.6 89 0.7 NW 7 9 4 5 1019.7 - 0.0
28/01:30am 6.6 3.7 4.5 86 0.9 N 9 11 5 6 1019.5 1019.5 0.0
28/01:00am 5.7 3.1 4.0 89 0.7 NNW 7 9 4 5 1019.5 - 0.0
28/12:30am 5.9 4.7 4.5 91 0.6 CALM 0 0 0 0 1019.6 1019.6 0.0
28/12:00am 5.3 3.9 3.6 89 0.7 CALM 0 6 0 3 1019.7 1019.7 0.0
 
Date/Time
CST
Temp
°C
App
Temp
°C
Dew
Point
Rel
Hum
%
Delta-T
°C
Wind Press
QNH
hPa
Press
MSL
hPa
Rain
since 9 am
mm
Dir
 
Spd
km/h
Gust
km/h
Spd
kts
Gust
kts
27/11:30pm 6.4 3.9 4.8 89 0.7 N 7 9 4 5 1019.8 1019.8 0.0
27/11:00pm 6.9 3.6 4.8 86 0.9 N 11 13 6 7 1020.0 - 0.0
27/10:30pm 6.9 4.0 4.8 86 0.9 N 9 11 5 6 1020.2 1020.2 0.0
27/10:00pm 7.7 4.1 5.2 84 1.1 N 13 15 7 8 1020.1 - 0.0
27/09:30pm 8.3 6.1 5.4 82 1.3 N 6 7 3 4 1020.3 1020.3 0.0
27/09:00pm 8.3 6.0 5.9 85 1.1 N 7 9 4 5 1020.2 1020.2 0.0
27/08:30pm 9.1 8.2 6.0 81 1.4 CALM 0 0 0 0 1020.2 1020.2 0.0
27/08:00pm 9.4 7.3 6.8 84 1.2 NE 7 9 4 5 1019.9 - 0.0
27/07:30pm 10.6 8.3 7.5 81 1.5 NNE 9 9 5 5 1019.6 1019.6 0.0
27/07:00pm 13.2 11.0 6.0 61 3.4 WSW 7 11 4 6 1019.5 - 0.0
27/06:30pm 13.7 10.4 6.6 62 3.4 WSW 13 15 7 8 1019.2 1019.2 0.0
27/06:00pm 15.2 12.0 7.0 58 4.0 WSW 13 17 7 9 1019.0 1019.0 0.0
27/05:30pm 17.2 13.3 6.9 50 5.1 WSW 17 19 9 10 1018.9 1018.9 0.0
27/05:00pm 18.3 14.7 6.9 47 5.7 SW 15 19 8 10 1018.6 - 0.0
27/04:30pm 21.2 17.2 4.9 34 8.0 W 15 20 8 11 1018.6 1018.6 0.0
27/04:00pm 21.4 17.0 4.9 34 8.1 W 17 20 9 11 1018.5 - 0.0
27/03:30pm 22.0 17.6 4.7 32 8.5 W 17 22 9 12 1018.5 1018.5 0.0
27/03:00pm 22.7 18.6 4.6 30 8.9 WNW 15 20 8 11 1018.5 1018.5 0.0
27/02:30pm 22.7 17.9 4.6 30 8.9 NW 19 28 10 15 1018.6 1018.6 0.0
27/02:00pm 22.0 16.9 4.1 31 8.7 NNW 20 32 11 17 1018.9 - 0.0
27/01:30pm 21.9 17.1 5.7 35 8.1 NNW 20 26 11 14 1019.2 1019.2 0.0
27/01:00pm 21.1 15.9 5.6 36 7.7 N 22 30 12 16 1019.7 - 0.0
27/12:30pm 20.6 15.3 5.1 36 7.6 N 22 32 12 17 1020.3 1020.3 0.0
27/12:00pm 19.9 14.2 5.1 38 7.2 N 24 32 13 17 1021.0 1021.0 0.0
27/11:30am 18.9 12.0 4.4 38 6.9 N 30 39 16 21 1021.2 1021.2 0.0
27/11:00am 18.3 11.0 4.7 40 6.5 N 32 41 17 22 1021.6 - 0.0
27/10:30am 17.7 11.5 4.3 41 6.3 N 26 35 14 19 1022.0 1022.0 0.0
27/10:00am 16.2 9.1 3.8 43 5.7 N 30 39 16 21 1022.0 - 0.0
27/09:30am 14.7 8.1 4.3 49 4.8 N 28 35 15 19 1022.2 1022.2 0.0
27/09:00am 12.6 7.1 4.2 56 3.8 N 22 30 12 16 1022.3 1022.3 0.0
27/08:30am 11.1 5.6 3.9 61 3.2 N 22 28 12 15 1022.4 1022.4 0.0
27/08:00am 9.7 4.7 3.7 66 2.6 N 19 24 10 13 1022.4 - 0.0
27/07:30am 9.4 4.2 3.4 66 2.6 N 20 26 11 14 1022.1 1022.1 0.0
27/07:00am 9.7 4.1 3.2 64 2.8 N 22 30 12 16 1021.9 - 0.0
27/06:30am 9.4 4.2 3.4 66 2.6 N 20 24 11 13 1021.6 1021.6 0.0
27/06:00am 9.0 4.4 3.7 69 2.3 N 17 22 9 12 1021.6 1021.6 0.0
27/05:30am 8.5 5.5 3.9 73 2.0 N 9 11 5 6 1021.7 1021.7 0.0
27/05:00am 9.9 5.7 3.7 65 2.7 N 15 19 8 10 1021.9 - 0.0
27/04:30am 10.7 5.1 3.4 60 3.2 N 22 28 12 15 1021.3 1021.3 0.0
27/04:00am 9.6 5.0 3.9 67 2.5 N 17 20 9 11 1021.5 - 0.0
27/03:30am 7.2 3.0 3.9 79 1.4 NNE 15 19 8 10 1022.0 1022.0 0.0
27/03:00am 7.3 3.5 4.0 79 1.4 NNE 13 15 7 8 1022.6 1022.6 0.0
27/02:30am 7.9 4.1 3.9 76 1.7 NNE 13 17 7 9 1022.8 1022.8 0.0
27/02:00am 7.9 4.2 4.2 77 1.6 NNE 13 17 7 9 1023.2 - 0.0
27/01:30am 7.4 4.0 4.1 79 1.4 NNE 11 13 6 7 1023.3 1023.3 0.0
27/01:00am 7.9 4.5 4.2 77 1.6 N 11 13 6 7 1023.4 - 0.0
27/12:30am 8.4 4.7 4.5 76 1.7 N 13 17 7 9 1023.7 1023.7 0.0
27/12:00am 8.9 5.2 4.6 74 1.9 N 13 15 7 8 1023.8 1023.8 0.0
 
Date/Time
CST
Temp
°C
App
Temp
°C
Dew
Point
Rel
Hum
%
Delta-T
°C
Wind Press
QNH
hPa
Press
MSL
hPa
Rain
since 9 am
mm
Dir
 
Spd
km/h
Gust
km/h
Spd
kts
Gust
kts
26/11:30pm 8.9 5.3 5.1 77 1.7 N 13 17 7 9 1023.9 1023.9 0.0
26/11:00pm 9.6 5.6 4.9 72 2.1 N 15 17 8 9 1023.9 - 0.0
26/10:30pm 9.4 5.5 5.2 75 1.9 NNE 15 19 8 10 1023.9 1023.9 0.0
26/10:00pm 9.4 5.0 4.9 73 2.0 NNE 17 20 9 11 1024.1 - 0.0
26/09:30pm 8.4 4.5 5.3 81 1.4 NNE 15 19 8 10 1024.2 1024.2 0.0
26/09:00pm 8.6 4.8 5.7 82 1.3 NE 15 17 8 9 1024.2 1024.2 0.0
26/08:30pm 8.7 5.3 5.8 82 1.3 NNE 13 15 7 8 1024.3 1024.3 0.0
26/08:00pm 9.1 6.2 6.3 83 1.3 NNE 11 13 6 7 1024.3 - 0.0
26/07:30pm 10.0 6.8 6.8 80 1.5 NNE 13 15 7 8 1024.2 1024.2 0.0
26/07:00pm 11.1 8.0 7.3 77 1.8 NNE 13 13 7 7 1023.9 - 0.0
26/06:30pm 11.4 8.5 8.3 81 1.5 NE 13 15 7 8 1023.7 1023.7 0.0
26/06:00pm 13.8 11.8 8.6 71 2.6 NNE 9 11 5 6 1023.6 1023.6 0.0
26/05:30pm 16.4 14.0 8.5 59 4.0 N 11 13 6 7 1023.7 1023.7 0.0
26/05:00pm 18.0 14.8 6.7 47 5.6 N 13 15 7 8 1023.8 - 0.0
26/04:30pm 18.7 15.3 6.1 43 6.2 N 13 17 7 9 1024.0 1024.0 0.0
26/04:00pm 18.9 15.7 5.3 41 6.6 NNW 11 17 6 9 1024.1 - 0.0
26/03:30pm 18.9 15.2 6.1 43 6.3 NNW 15 19 8 10 1024.2 1024.2 0.0
26/03:00pm 18.7 14.6 6.1 43 6.2 N 17 26 9 14 1024.2 1024.2 0.0
26/02:30pm 18.5 13.7 5.5 42 6.3 N 20 28 11 15 1024.4 1024.4 0.0
26/02:00pm 18.5 14.4 6.1 44 6.1 N 17 26 9 14 1024.6 - 0.0
26/01:30pm 18.2 13.5 6.2 45 5.9 N 20 28 11 15 1025.0 1025.0 0.0
26/01:00pm 18.0 13.5 6.9 48 5.5 N 20 24 11 13 1025.6 - 0.0
26/12:30pm 17.6 13.0 6.4 47 5.5 N 20 28 11 15 1026.1 1026.1 0.0
26/12:00pm 17.2 12.6 8.3 56 4.5 N 22 28 12 15 1026.7 1026.7 0.0
26/11:30am 16.9 13.2 9.6 62 3.8 N 19 24 10 13 1027.3 1027.3 0.0
26/11:00am 15.8 12.1 10.0 68 3.0 N 20 26 11 14 1027.7 - 0.0
26/10:30am 15.1 11.4 10.3 73 2.5 N 20 24 11 13 1027.9 1027.9 0.0
26/10:00am 13.9 10.5 10.6 80 1.7 N 19 24 10 13 1028.0 - 0.0

Other Formats:

Comma delimited format used in spreadsheet applications
http://www.bom.gov.au/fwo/IDS60801/IDS60801.94653.axf

JavaScript Object Notation format (JSON) in row-major order
http://www.bom.gov.au/fwo/IDS60801/IDS60801.94653.json